Time;durP1;ratioP1;P1;durP2;ratioP2;P2;SDS_P1;SDS_P2;PMS_P1;PMS_P2;Temp;Humidity;BMP_temperature;BMP_pressure;BME280_temperature;BME280_humidity;BME280_pressure;Samples;Min_cycle;Max_cycle;Signal;HPM_P1;HPM_P2
2023/10/20 00:01:28;;;;;;;13.05;4.18;;;17.80;99.90;;;;;;4902507;29;20122;-78
2023/10/20 00:03:53;;;;;;;10.05;4.57;;;17.80;99.90;;;;;;4900472;29;20021;-81
2023/10/20 00:06:20;;;;;;;15.05;4.70;;;17.80;99.90;;;;;;4899994;29;20107;-79
2023/10/20 00:08:46;;;;;;;14.63;4.40;;;17.80;99.90;;;;;;4900378;29;20116;-82
2023/10/20 00:11:12;;;;;;;9.52;4.28;;;17.80;99.90;;;;;;4898769;29;20127;-81
2023/10/20 00:13:38;;;;;;;12.10;4.43;;;17.80;99.90;;;;;;4906207;29;20803;-79
2023/10/20 00:16:04;;;;;;;10.85;5.07;;;17.80;99.90;;;;;;4898807;29;20111;-79
2023/10/20 00:18:30;;;;;;;9.40;4.28;;;17.90;99.90;;;;;;4902474;29;20048;-78
2023/10/20 00:20:56;;;;;;;8.48;4.18;;;17.80;99.90;;;;;;4902232;29;20115;-79
2023/10/20 00:23:22;;;;;;;10.77;4.40;;;17.90;99.90;;;;;;4898514;29;20436;-82
2023/10/20 00:25:48;;;;;;;12.25;4.18;;;17.90;99.90;;;;;;4901642;29;20025;-78
2023/10/20 00:28:14;;;;;;;11.10;4.75;;;17.90;99.90;;;;;;4901622;29;20058;-82
2023/10/20 00:30:41;;;;;;;11.52;5.10;;;17.90;99.90;;;;;;4883811;29;20056;-77
2023/10/20 00:33:07;;;;;;;11.38;4.38;;;17.90;99.90;;;;;;4899729;29;20031;-79
2023/10/20 00:35:34;;;;;;;8.60;4.18;;;18.00;99.90;;;;;;4881506;29;20033;-80
2023/10/20 00:38:01;;;;;;;7.93;4.03;;;17.90;99.90;;;;;;4886988;29;20373;-79
2023/10/20 00:40:27;;;;;;;14.52;5.03;;;18.00;99.90;;;;;;4883578;29;20040;-79
2023/10/20 00:42:53;;;;;;;7.65;4.65;;;18.10;99.90;;;;;;4901245;29;20033;-77
2023/10/20 00:45:19;;;;;;;8.50;4.53;;;18.10;99.90;;;;;;4898814;29;20063;-78
2023/10/20 00:47:45;;;;;;;9.07;4.45;;;18.10;99.90;;;;;;4901847;29;20453;-79
2023/10/20 00:50:13;;;;;;;6.88;3.72;;;18.10;99.90;;;;;;4884209;29;20061;-77
2023/10/20 00:52:48;;;;;;;9.88;4.13;;;18.10;99.90;;;;;;4902686;29;20033;-76
2023/10/20 00:55:15;;;;;;;9.93;4.78;;;18.10;99.90;;;;;;4900283;29;20016;-79
2023/10/20 00:57:44;;;;;;;13.32;4.80;;;18.20;99.90;;;;;;4897177;29;20025;-76
2023/10/20 01:00:10;;;;;;;10.00;4.65;;;18.20;99.90;;;;;;4886342;29;20032;-77
2023/10/20 01:02:36;;;;;;;9.95;4.55;;;18.10;99.90;;;;;;4901557;29;20028;-77
2023/10/20 01:05:08;;;;;;;10.85;4.55;;;18.20;99.90;;;;;;4901145;29;20033;-76
2023/10/20 01:07:37;;;;;;;9.73;5.55;;;18.10;99.90;;;;;;4901170;29;20044;-77
2023/10/20 01:10:05;;;;;;;18.55;5.03;;;18.10;99.90;;;;;;4882223;29;20113;-77
2023/10/20 01:12:32;;;;;;;12.65;5.28;;;18.10;99.90;;;;;;4900300;29;20036;-77
2023/10/20 01:15:00;;;;;;;12.63;5.07;;;18.10;99.90;;;;;;4901403;29;20036;-76
2023/10/20 01:17:30;;;;;;;11.05;4.18;;;18.10;99.90;;;;;;4898262;29;20496;-79
2023/10/20 01:20:00;;;;;;;12.15;5.20;;;18.10;99.90;;;;;;4880922;29;20028;-78
2023/10/20 01:22:26;;;;;;;11.80;4.93;;;18.00;99.90;;;;;;4883773;29;20107;-78
2023/10/20 01:24:52;;;;;;;11.65;4.85;;;18.00;99.90;;;;;;4902017;29;20465;-77
2023/10/20 01:27:19;;;;;;;13.00;4.57;;;18.00;99.90;;;;;;4899123;29;20491;-77
2023/10/20 01:29:45;;;;;;;13.75;4.55;;;18.00;99.90;;;;;;4899618;29;20099;-77
2023/10/20 01:32:11;;;;;;;17.30;4.93;;;18.00;99.90;;;;;;4901729;29;20034;-76
2023/10/20 01:34:37;;;;;;;15.60;5.13;;;18.00;99.90;;;;;;4903872;29;20032;-78
2023/10/20 01:37:02;;;;;;;13.05;4.18;;;18.00;99.90;;;;;;4898252;29;20433;-79
2023/10/20 01:39:30;;;;;;;12.95;4.45;;;18.00;99.90;;;;;;4905397;29;20036;-80
2023/10/20 01:41:56;;;;;;;16.23;5.10;;;18.00;99.90;;;;;;4897999;29;20096;-78
2023/10/20 01:44:22;;;;;;;11.43;4.90;;;18.00;99.90;;;;;;4900543;29;20028;-78
2023/10/20 01:46:51;;;;;;;18.98;5.53;;;18.00;99.90;;;;;;4900030;29;20025;-78
2023/10/20 01:49:20;;;;;;;18.00;5.43;;;18.00;99.90;;;;;;4900255;29;20040;-79
2023/10/20 01:51:46;;;;;;;14.07;5.57;;;18.00;99.90;;;;;;4897901;29;20472;-78
2023/10/20 01:54:12;;;;;;;23.40;5.80;;;18.10;99.90;;;;;;4897865;29;20021;-80
2023/10/20 01:56:38;;;;;;;28.15;6.20;;;18.00;99.90;;;;;;4899123;29;20469;-79
2023/10/20 01:59:04;;;;;;;22.17;6.20;;;18.00;99.90;;;;;;4885266;29;20024;-75
2023/10/20 02:01:30;;;;;;;19.30;6.97;;;18.00;99.90;;;;;;4897256;29;20036;-76
2023/10/20 02:03:56;;;;;;;26.30;7.38;;;18.00;99.90;;;;;;4898685;29;20492;-76
2023/10/20 02:06:22;;;;;;;21.42;6.18;;;18.00;99.90;;;;;;4897984;29;20043;-75
2023/10/20 02:08:48;;;;;;;16.73;7.13;;;18.00;99.90;;;;;;4900722;29;20432;-77
2023/10/20 02:11:15;;;;;;;19.70;6.20;;;18.00;99.90;;;;;;4882997;29;20044;-77
2023/10/20 02:13:44;;;;;;;21.52;6.78;;;17.90;99.90;;;;;;4901522;29;20036;-77
2023/10/20 02:16:10;;;;;;;12.52;5.40;;;18.00;99.90;;;;;;4880406;29;20037;-79
2023/10/20 02:18:37;;;;;;;15.45;6.10;;;18.00;99.90;;;;;;4901877;29;20433;-79
2023/10/20 02:21:03;;;;;;;17.45;4.80;;;18.00;99.90;;;;;;4899609;29;20119;-80
2023/10/20 02:23:40;;;;;;;14.15;5.45;;;18.00;99.90;;;;;;4894683;29;20525;-82
2023/10/20 02:26:07;;;;;;;14.80;6.65;;;17.90;99.90;;;;;;4882966;29;20032;-77
2023/10/20 02:28:36;;;;;;;12.40;4.88;;;17.90;99.90;;;;;;4897214;29;20055;-79
2023/10/20 02:31:11;;;;;;;18.33;5.75;;;17.90;99.90;;;;;;4896445;29;20033;-79
2023/10/20 02:33:38;;;;;;;13.60;5.40;;;17.90;99.90;;;;;;4903512;29;20068;-78
2023/10/20 02:36:04;;;;;;;16.75;5.07;;;17.90;99.90;;;;;;4905953;29;20444;-75
2023/10/20 02:38:30;;;;;;;14.85;5.15;;;17.90;99.90;;;;;;4900430;29;20033;-80
2023/10/20 02:40:56;;;;;;;13.05;4.53;;;17.90;99.90;;;;;;4897554;29;20498;-76
2023/10/20 02:43:22;;;;;;;9.82;4.78;;;17.90;99.90;;;;;;4879062;29;20032;-79
2023/10/20 02:45:52;;;;;;;10.65;4.50;;;17.90;99.90;;;;;;4900617;29;20027;-77
2023/10/20 02:48:19;;;;;;;10.85;4.95;;;17.90;99.90;;;;;;4899691;29;20117;-79
2023/10/20 02:50:45;;;;;;;14.27;5.63;;;17.90;99.90;;;;;;4895320;29;20048;-76
2023/10/20 02:53:13;;;;;;;16.27;7.13;;;17.90;99.90;;;;;;4896287;29;20028;-78
2023/10/20 02:55:40;;;;;;;10.70;5.68;;;17.90;99.90;;;;;;4902916;29;20067;-77
2023/10/20 02:58:07;;;;;;;11.13;5.57;;;17.90;99.90;;;;;;4897490;29;20028;-76
2023/10/20 03:00:33;;;;;;;12.48;4.85;;;17.90;99.90;;;;;;4879276;29;20046;-75
2023/10/20 03:03:00;;;;;;;13.15;5.82;;;17.80;99.90;;;;;;4879761;29;20060;-77
2023/10/20 03:05:32;;;;;;;15.38;5.78;;;17.80;99.90;;;;;;4894391;29;20501;-76
2023/10/20 03:07:58;;;;;;;16.23;6.10;;;17.80;99.90;;;;;;4901294;29;20040;-81
2023/10/20 03:10:25;;;;;;;23.80;6.03;;;17.90;99.90;;;;;;4899886;29;20057;-76
2023/10/20 03:12:51;;;;;;;16.75;5.32;;;17.80;99.90;;;;;;4877950;29;20075;-77
2023/10/20 03:15:17;;;;;;;13.45;5.82;;;17.80;99.90;;;;;;4896849;29;20056;-76
2023/10/20 03:17:43;;;;;;;13.25;5.35;;;17.70;99.90;;;;;;4896214;29;20028;-75
2023/10/20 03:20:09;;;;;;;13.93;4.80;;;17.80;99.90;;;;;;4898688;29;20428;-79
2023/10/20 03:22:35;;;;;;;17.13;6.32;;;17.80;99.90;;;;;;4899097;29;20035;-76
2023/10/20 03:25:04;;;;;;;18.60;5.75;;;17.80;99.90;;;;;;4899282;29;20457;-77
2023/10/20 03:27:30;;;;;;;16.05;5.13;;;17.80;99.90;;;;;;4868117;29;20067;-79
2023/10/20 03:29:56;;;;;;;12.35;4.75;;;17.80;99.90;;;;;;4886637;29;20025;-76
2023/10/20 03:32:22;;;;;;;9.82;4.80;;;17.80;99.90;;;;;;4901312;29;20084;-80
2023/10/20 03:34:48;;;;;;;11.98;5.15;;;17.70;99.90;;;;;;4887929;29;20031;-81
2023/10/20 03:37:15;;;;;;;11.40;4.65;;;17.80;99.90;;;;;;4900858;29;20037;-76
2023/10/20 03:39:43;;;;;;;14.43;5.50;;;17.80;99.90;;;;;;4899491;29;20116;-77
2023/10/20 03:42:13;;;;;;;9.07;4.18;;;17.80;99.90;;;;;;4899337;29;20028;-77
2023/10/20 03:44:39;;;;;;;14.00;5.35;;;17.80;99.90;;;;;;4899835;29;20068;-81
2023/10/20 03:47:07;;;;;;;12.32;4.65;;;17.80;99.90;;;;;;4918546;29;20058;-80
2023/10/20 03:49:35;;;;;;;12.32;5.15;;;17.70;99.90;;;;;;4918515;29;20072;-76
2023/10/20 03:52:02;;;;;;;15.95;5.05;;;17.80;99.90;;;;;;4917537;29;20428;-82
2023/10/20 03:54:31;;;;;;;9.10;4.38;;;17.70;99.90;;;;;;4902613;29;20025;-81
2023/10/20 03:56:58;;;;;;;9.70;4.72;;;17.80;99.90;;;;;;4887104;29;20040;-79
2023/10/20 03:59:24;;;;;;;17.50;4.50;;;17.80;99.90;;;;;;4902042;29;20053;-79
2023/10/20 04:01:51;;;;;;;12.43;5.28;;;17.80;99.90;;;;;;4902396;29;20033;-77
2023/10/20 04:04:17;;;;;;;11.52;4.45;;;17.70;99.90;;;;;;4900173;29;20461;-79
2023/10/20 04:06:46;;;;;;;10.52;4.43;;;17.70;99.90;;;;;;4908234;29;20027;-79
2023/10/20 04:09:12;;;;;;;12.55;5.45;;;17.70;99.90;;;;;;4901959;29;20638;-81
2023/10/20 04:11:38;;;;;;;12.52;5.53;;;17.80;99.90;;;;;;4901047;29;20044;-80
2023/10/20 04:14:08;;;;;;;10.73;5.15;;;17.80;99.90;;;;;;4903292;29;20035;-80
2023/10/20 04:16:41;;;;;;;10.43;4.15;;;17.80;99.90;;;;;;4903091;29;20020;-81
2023/10/20 04:19:14;;;;;;;12.48;5.22;;;17.90;99.90;;;;;;4918355;29;20477;-81
2023/10/20 04:21:43;;;;;;;10.27;4.13;;;17.90;99.90;;;;;;4917452;29;20032;-81
2023/10/20 04:24:10;;;;;;;12.98;5.20;;;17.90;99.90;;;;;;4918825;29;20027;-81
2023/10/20 04:26:38;;;;;;;9.80;3.72;;;18.00;99.90;;;;;;4918539;29;20038;-77
2023/10/20 04:29:23;;;;;;;10.88;4.75;;;18.00;99.90;;;;;;4918225;29;20032;-82
2023/10/20 04:58:46;;;;;;;13.27;5.55;;;18.00;99.90;;;;;;4917870;29;20028;-77
2023/10/20 05:01:26;;;;;;;10.75;4.88;;;18.00;99.90;;;;;;4911063;29;20032;-78
2023/10/20 05:03:57;;;;;;;18.33;5.20;;;18.00;99.90;;;;;;4917916;29;20091;-77
2023/10/20 05:06:24;;;;;;;16.38;6.65;;;18.00;99.90;;;;;;4917815;29;20028;-79
2023/10/20 05:08:50;;;;;;;11.73;5.45;;;18.00;99.90;;;;;;4917405;29;20124;-80
2023/10/20 05:11:16;;;;;;;18.75;5.57;;;18.00;99.90;;;;;;4917268;29;20127;-79
2023/10/20 05:13:42;;;;;;;12.77;4.65;;;17.90;99.90;;;;;;4916725;29;20790;-78
2023/10/20 05:16:12;;;;;;;10.95;5.45;;;18.10;99.90;;;;;;4917569;29;20378;-78
2023/10/20 05:18:42;;;;;;;14.25;5.97;;;17.90;99.90;;;;;;4904844;29;20024;-78
2023/10/20 05:21:09;;;;;;;10.10;4.68;;;17.90;99.90;;;;;;4911750;29;20473;-80
2023/10/20 05:23:36;;;;;;;18.58;5.65;;;17.90;99.90;;;;;;4916148;29;20075;-79
2023/10/20 05:26:02;;;;;;;15.45;6.50;;;17.90;99.90;;;;;;4916352;29;20036;-78
2023/10/20 05:28:30;;;;;;;13.13;4.90;;;17.90;99.90;;;;;;4887003;29;20088;-80
2023/10/20 05:30:57;;;;;;;12.50;5.43;;;17.90;99.90;;;;;;4909065;29;20032;-78
2023/10/20 05:33:25;;;;;;;14.20;5.75;;;17.90;99.90;;;;;;4917569;29;20380;-79
2023/10/20 05:35:51;;;;;;;13.45;5.00;;;17.90;99.90;;;;;;4912698;29;20024;-80
2023/10/20 05:38:17;;;;;;;19.75;5.38;;;17.90;99.90;;;;;;4917002;29;20031;-80
2023/10/20 05:40:42;;;;;;;12.25;5.53;;;17.90;99.90;;;;;;4900114;29;20400;-78
2023/10/20 05:43:08;;;;;;;17.27;5.25;;;18.00;99.90;;;;;;4917176;29;20156;-78
2023/10/20 05:45:43;;;;;;;16.65;5.65;;;18.10;99.90;;;;;;4917351;29;20040;-81
2023/10/20 05:48:10;;;;;;;13.80;5.50;;;18.10;99.90;;;;;;4917169;29;20040;-78
2023/10/20 05:50:37;;;;;;;15.25;6.15;;;18.20;99.90;;;;;;4916529;29;20016;-80
2023/10/20 05:53:04;;;;;;;19.58;6.00;;;18.40;99.90;;;;;;4916923;29;20104;-82
2023/10/20 05:55:30;;;;;;;10.85;6.22;;;18.50;99.90;;;;;;4916512;29;20075;-77
2023/10/20 05:57:56;;;;;;;14.15;5.78;;;18.70;99.90;;;;;;4917151;29;20039;-80
2023/10/20 06:00:22;;;;;;;17.92;6.82;;;18.90;99.90;;;;;;4916496;29;20087;-78
2023/10/20 06:02:48;;;;;;;16.25;6.20;;;19.10;99.90;;;;;;4917208;29;20044;-78
2023/10/20 06:05:14;;;;;;;14.77;5.18;;;19.30;99.90;;;;;;4899029;29;20028;-80
2023/10/20 06:07:43;;;;;;;15.45;6.35;;;;;;;;;;4916451;29;20040;-84
2023/10/20 06:10:13;;;;;;;13.13;5.85;;;19.60;99.90;;;;;;4915920;29;20092;-79
2023/10/20 06:12:39;;;;;;;14.65;6.05;;;19.70;99.90;;;;;;4916277;29;20035;-81
2023/10/20 06:15:07;;;;;;;12.20;5.90;;;19.90;99.90;;;;;;4916061;29;20448;-77
2023/10/20 06:17:34;;;;;;;12.48;5.22;;;20.10;99.90;;;;;;4916287;29;20032;-79
2023/10/20 06:20:05;;;;;;;12.35;6.28;;;20.20;99.90;;;;;;4916507;29;20389;-81
2023/10/20 06:22:31;;;;;;;16.95;6.60;;;20.30;99.90;;;;;;4915658;29;20050;-80
2023/10/20 06:24:58;;;;;;;12.55;6.18;;;20.40;99.90;;;;;;4916229;29;20031;-77
2023/10/20 06:27:24;;;;;;;14.90;5.97;;;20.40;99.90;;;;;;4916083;29;20032;-78
2023/10/20 06:29:57;;;;;;;14.55;5.32;;;20.40;99.90;;;;;;4916317;29;20075;-80
2023/10/20 06:32:25;;;;;;;12.65;5.68;;;20.40;99.90;;;;;;4915631;29;20177;-78
2023/10/20 06:34:58;;;;;;;15.00;5.35;;;20.50;99.90;;;;;;4904144;29;20031;-77
2023/10/20 06:37:29;;;;;;;12.85;5.57;;;20.60;99.90;;;;;;4897187;29;20040;-77
2023/10/20 06:39:56;;;;;;;10.98;4.68;;;20.60;99.90;;;;;;4915871;29;20116;-77
2023/10/20 06:42:24;;;;;;;18.52;5.72;;;20.80;99.90;;;;;;4915979;29;20032;-78
2023/10/20 06:44:50;;;;;;;11.77;5.32;;;20.80;99.90;;;;;;4898716;29;20039;-79
2023/10/20 06:47:16;;;;;;;11.07;5.13;;;20.80;99.90;;;;;;4916034;29;20024;-78
2023/10/20 06:49:42;;;;;;;9.90;5.22;;;20.80;99.90;;;;;;4915619;29;20032;-81
2023/10/20 06:52:08;;;;;;;14.80;5.18;;;20.80;99.90;;;;;;4915619;29;20504;-80
2023/10/20 06:54:34;;;;;;;9.77;5.20;;;20.90;99.90;;;;;;4915507;29;20605;-79
2023/10/20 06:57:00;;;;;;;11.48;4.57;;;20.90;99.90;;;;;;4915158;29;20107;-80
2023/10/20 06:59:26;;;;;;;12.30;4.95;;;20.90;99.90;;;;;;4915130;29;20427;-79
2023/10/20 07:01:56;;;;;;;15.15;5.10;;;20.90;99.90;;;;;;4905584;29;20060;-80
2023/10/20 07:04:21;;;;;;;14.23;5.80;;;20.90;99.90;;;;;;4915451;29;20027;-79
2023/10/20 07:06:49;;;;;;;17.85;6.28;;;20.90;99.90;;;;;;4914834;29;20408;-79
2023/10/20 07:09:14;;;;;;;16.30;6.75;;;21.00;99.90;;;;;;4915671;29;20046;-79
2023/10/20 07:11:42;;;;;;;25.55;7.32;;;21.00;99.90;;;;;;4914848;29;20048;-79
2023/10/20 07:14:07;;;;;;;21.05;6.30;;;21.00;99.90;;;;;;4898371;29;20028;-77
2023/10/20 07:16:34;;;;;;;26.48;7.60;;;21.10;99.90;;;;;;4915374;29;20032;-77
2023/10/20 07:19:01;;;;;;;28.25;8.40;;;21.10;99.90;;;;;;4915065;29;20038;-77
2023/10/20 07:21:27;;;;;;;25.02;8.32;;;21.10;99.90;;;;;;4915543;29;20028;-78
2023/10/20 07:23:53;;;;;;;32.78;8.38;;;21.10;99.90;;;;;;4915605;29;20038;-79
2023/10/20 07:26:19;;;;;;;23.88;7.20;;;21.10;99.90;;;;;;4915500;29;20123;-78
2023/10/20 07:28:45;;;;;;;24.65;8.07;;;21.20;99.90;;;;;;4915356;29;20471;-80
2023/10/20 07:31:12;;;;;;;20.42;7.57;;;21.30;99.90;;;;;;4914937;29;20032;-78
2023/10/20 07:33:38;;;;;;;21.67;7.05;;;21.40;99.90;;;;;;4898338;29;20040;-79
2023/10/20 07:36:05;;;;;;;16.88;8.27;;;21.40;99.90;;;;;;4915429;29;20392;-79
2023/10/20 07:38:31;;;;;;;27.63;8.90;;;21.50;99.90;;;;;;4915191;29;20043;-77
2023/10/20 07:41:04;;;;;;;33.75;10.98;;;21.60;99.90;;;;;;4915472;29;20036;-76
2023/10/20 07:43:30;;;;;;;25.38;8.82;;;21.60;99.90;;;;;;4915346;29;20056;-78
2023/10/20 07:45:56;;;;;;;31.95;8.93;;;;;;;;;;4915293;29;20083;-78
2023/10/20 07:48:22;;;;;;;27.95;8.50;;;21.90;99.90;;;;;;4915852;29;20050;-78
2023/10/20 07:50:48;;;;;;;28.35;8.45;;;21.90;99.90;;;;;;4915034;29;20442;-77
2023/10/20 07:53:13;;;;;;;23.77;7.70;;;22.10;99.90;;;;;;4915361;29;20035;-79
2023/10/20 07:55:39;;;;;;;20.90;8.18;;;22.20;99.90;;;;;;4914718;29;20064;-77
2023/10/20 07:58:08;;;;;;;17.92;6.68;;;22.40;99.90;;;;;;4915760;29;20394;-81
2023/10/20 08:00:36;;;;;;;20.75;7.82;;;;;;;;;;4914823;29;20024;-79
2023/10/20 08:03:03;;;;;;;14.70;6.65;;;23.00;99.90;;;;;;4915602;29;20132;-80
2023/10/20 08:05:29;;;;;;;17.27;7.20;;;23.20;99.90;;;;;;4915228;29;20044;-78
2023/10/20 08:08:01;;;;;;;20.35;7.40;;;23.40;99.90;;;;;;4910909;29;20079;-79
2023/10/20 08:10:28;;;;;;;21.33;7.10;;;;;;;;;;4914507;29;20048;-78
2023/10/20 08:12:54;;;;;;;18.50;6.85;;;;;;;;;;4915638;29;20036;-80
2023/10/20 08:15:20;;;;;;;13.98;6.00;;;23.70;99.90;;;;;;4916318;29;20317;-77
2023/10/20 08:17:48;;;;;;;20.23;6.07;;;23.80;99.90;;;;;;4918664;29;20028;-80
2023/10/20 08:20:14;;;;;;;15.50;7.78;;;24.00;99.90;;;;;;4918773;29;20036;-78
2023/10/20 08:22:40;;;;;;;15.98;6.95;;;24.00;99.90;;;;;;4907093;29;20024;-78
2023/10/20 08:25:08;;;;;;;18.17;7.97;;;24.20;99.90;;;;;;4901844;29;20040;-77
2023/10/20 08:27:34;;;;;;;17.67;7.55;;;24.30;99.00;;;;;;4898159;29;20024;-80
2023/10/20 08:30:00;;;;;;;19.00;6.95;;;;;;;;;;4899025;29;20058;-78
2023/10/20 08:32:26;;;;;;;15.63;7.47;;;24.50;99.90;;;;;;4912802;29;20032;-78
2023/10/20 08:34:53;;;;;;;17.75;7.57;;;24.00;99.90;;;;;;4913802;29;20019;-78
2023/10/20 08:37:19;;;;;;;21.17;6.88;;;24.70;98.50;;;;;;4901313;29;20063;-79
2023/10/20 08:39:45;;;;;;;18.85;6.90;;;24.70;97.90;;;;;;4918115;29;20581;-79
2023/10/20 08:42:21;;;;;;;15.98;7.00;;;24.80;98.20;;;;;;4913409;29;20110;-80
2023/10/20 08:44:49;;;;;;;16.45;7.03;;;;;;;;;;4917931;29;20035;-80
2023/10/20 08:47:21;;;;;;;31.02;8.68;;;25.10;99.90;;;;;;4910530;29;20042;-77
2023/10/20 08:49:47;;;;;;;23.65;7.15;;;25.30;97.00;;;;;;4902267;29;20032;-79
2023/10/20 08:52:13;;;;;;;17.67;7.93;;;25.40;97.50;;;;;;4903717;29;20048;-78
2023/10/20 08:54:40;;;;;;;17.33;7.05;;;25.40;97.50;;;;;;4907169;29;20496;-81
2023/10/20 08:57:06;;;;;;;18.45;7.03;;;25.50;95.90;;;;;;4904691;29;20075;-78
2023/10/20 08:59:35;;;;;;;19.42;6.72;;;25.50;95.10;;;;;;4914699;29;20678;-79
2023/10/20 09:02:01;;;;;;;22.50;7.32;;;25.50;94.90;;;;;;4914526;29;20028;-78
2023/10/20 09:04:28;;;;;;;15.32;6.45;;;25.50;94.30;;;;;;4917887;29;20032;-78
2023/10/20 09:06:54;;;;;;;18.00;7.00;;;25.50;93.80;;;;;;4908216;29;20035;-80
2023/10/20 09:09:20;;;;;;;17.10;8.43;;;25.60;94.30;;;;;;4915610;29;20044;-77
2023/10/20 09:11:47;;;;;;;37.55;12.82;;;25.50;94.20;;;;;;4894838;29;20130;-78
2023/10/20 09:14:14;;;;;;;24.40;8.70;;;25.50;93.40;;;;;;4918344;29;20107;-77
2023/10/20 09:16:41;;;;;;;22.00;8.18;;;25.60;93.50;;;;;;4919034;29;20030;-78
2023/10/20 09:19:11;;;;;;;21.98;7.45;;;25.60;92.60;;;;;;4919703;29;20043;-78
2023/10/20 09:21:39;;;;;;;47.53;14.18;;;25.60;93.40;;;;;;4919262;29;20036;-78
2023/10/20 09:24:07;;;;;;;26.63;5.78;;;25.70;93.10;;;;;;4918558;29;20163;-78
2023/10/20 09:26:38;;;;;;;21.83;7.22;;;25.70;93.60;;;;;;4915603;29;20036;-80
2023/10/20 09:29:05;;;;;;;29.08;8.77;;;25.80;93.70;;;;;;4917507;29;20040;-82
2023/10/20 09:31:32;;;;;;;20.75;7.65;;;25.80;93.60;;;;;;4917269;29;20035;-79
2023/10/20 09:33:59;;;;;;;30.23;9.52;;;25.90;91.60;;;;;;4917436;29;20558;-79
2023/10/20 09:36:29;;;;;;;21.45;7.28;;;26.10;91.00;;;;;;4917302;29;20025;-81
2023/10/20 09:38:56;;;;;;;17.33;5.43;;;26.20;90.10;;;;;;4917372;29;20107;-78
2023/10/20 09:41:27;;;;;;;20.33;5.47;;;26.40;89.00;;;;;;4917001;29;20047;-81
2023/10/20 09:44:06;;;;;;;16.55;5.03;;;26.50;89.00;;;;;;4916917;29;20028;-80
2023/10/20 09:46:32;;;;;;;14.23;4.47;;;26.60;88.00;;;;;;4916932;29;20169;-82
2023/10/20 09:49:08;;;;;;;17.70;5.53;;;26.80;87.00;;;;;;4916937;29;20118;-81
2023/10/20 09:51:34;;;;;;;18.33;5.53;;;27.00;90.60;;;;;;4917302;29;20020;-79
2023/10/20 09:54:01;;;;;;;14.55;4.90;;;;;;;;;;4917665;29;20107;-79
2023/10/20 09:56:27;;;;;;;12.77;4.93;;;;;;;;;;4900046;29;20032;-79
2023/10/20 09:59:02;;;;;;;13.45;5.57;;;27.40;84.90;;;;;;4910086;29;20032;-81
2023/10/20 10:01:30;;;;;;;15.82;5.25;;;27.50;83.30;;;;;;4911721;29;20041;-81
2023/10/20 10:04:03;;;;;;;18.27;5.80;;;;;;;;;;4902023;29;20083;-78
2023/10/20 10:06:34;;;;;;;19.08;6.38;;;;;;;;;;4916988;29;20424;-78
2023/10/20 10:09:02;;;;;;;14.93;5.50;;;28.20;94.60;;;;;;4916729;29;20096;-79
2023/10/20 10:11:31;;;;;;;10.52;4.65;;;28.40;81.40;;;;;;4915984;29;20052;-79
2023/10/20 10:14:02;;;;;;;13.57;5.28;;;28.40;81.40;;;;;;4900803;29;20040;-80
2023/10/20 10:16:30;;;;;;;13.20;4.67;;;28.50;80.40;;;;;;4900633;29;20037;-78
2023/10/20 10:19:06;;;;;;;15.30;5.65;;;;;;;;;;4881165;29;20040;-81
2023/10/20 10:21:34;;;;;;;13.98;6.60;;;;;;;;;;4903789;29;20039;-81
2023/10/20 10:24:07;;;;;;;12.85;5.88;;;28.70;78.20;;;;;;4888395;29;20020;-80
2023/10/20 10:26:33;;;;;;;23.75;6.68;;;28.70;78.00;;;;;;4901870;29;20468;-80
2023/10/20 10:29:00;;;;;;;15.98;6.82;;;;;;;;;;4913198;29;20051;-82
2023/10/20 10:31:38;;;;;;;11.70;5.40;;;;;;;;;;4906271;29;20032;-81
2023/10/20 10:34:04;;;;;;;15.18;5.88;;;28.90;76.70;;;;;;4916235;29;20043;-78
2023/10/20 10:36:41;;;;;;;14.88;5.15;;;29.00;77.00;;;;;;4903475;29;20024;-81
2023/10/20 10:39:07;;;;;;;15.23;4.85;;;29.10;76.40;;;;;;4896502;29;20044;-79
2023/10/20 10:41:33;;;;;;;20.60;5.07;;;29.10;74.80;;;;;;4898532;29;20024;-80
2023/10/20 10:43:59;;;;;;;14.68;4.57;;;29.20;75.50;;;;;;4899884;29;20036;-80
2023/10/20 10:46:34;;;;;;;12.90;5.75;;;29.20;73.90;;;;;;4916039;29;20357;-82
2023/10/20 10:49:08;;;;;;;14.73;4.93;;;29.30;74.70;;;;;;4915888;29;20406;-80
2023/10/20 10:51:46;;;;;;;18.10;5.20;;;29.30;74.10;;;;;;4915852;29;20536;-80
2023/10/20 10:54:15;;;;;;;27.63;5.93;;;29.40;73.90;;;;;;4899254;29;20040;-82
2023/10/20 10:56:41;;;;;;;23.23;5.45;;;29.40;72.30;;;;;;4915608;29;20024;-80
2023/10/20 10:59:09;;;;;;;12.48;3.60;;;29.40;71.80;;;;;;4915940;29;20035;-80
2023/10/20 11:01:38;;;;;;;15.60;5.20;;;29.50;71.50;;;;;;4915724;29;20032;-83
2023/10/20 11:04:06;;;;;;;20.73;4.45;;;29.40;71.00;;;;;;4916034;29;20087;-81
2023/10/20 11:06:35;;;;;;;11.48;4.43;;;29.50;70.10;;;;;;4915248;29;20017;-83
2023/10/20 11:09:02;;;;;;;18.88;5.43;;;29.40;70.30;;;;;;4915730;29;20041;-81
2023/10/20 11:11:28;;;;;;;32.17;5.90;;;29.40;70.40;;;;;;4915643;29;20040;-81
2023/10/20 11:13:56;;;;;;;21.20;5.70;;;29.50;67.90;;;;;;4915571;29;20511;-80
2023/10/20 11:16:22;;;;;;;23.48;5.20;;;29.60;68.50;;;;;;4915801;29;20047;-82
2023/10/20 11:18:48;;;;;;;17.67;5.50;;;29.50;68.30;;;;;;4915296;29;20067;-79
2023/10/20 11:21:15;;;;;;;19.98;5.90;;;29.50;69.30;;;;;;4915381;29;20056;-80
2023/10/20 11:23:49;;;;;;;16.63;5.82;;;29.50;69.00;;;;;;4915746;29;20032;-79
2023/10/20 11:26:17;;;;;;;18.30;6.20;;;29.40;69.40;;;;;;4914992;29;20037;-84
2023/10/20 11:28:44;;;;;;;15.45;4.60;;;29.50;68.60;;;;;;4898961;29;20047;-81
2023/10/20 11:31:11;;;;;;;24.17;4.55;;;29.50;69.80;;;;;;4897420;29;20408;-84
2023/10/20 11:33:37;;;;;;;17.85;5.53;;;29.50;68.50;;;;;;4915597;29;20107;-82
2023/10/20 11:36:04;;;;;;;22.52;5.13;;;29.40;68.80;;;;;;4915055;29;20503;-79
2023/10/20 11:38:32;;;;;;;16.95;5.00;;;29.40;70.30;;;;;;4915637;29;20039;-80
2023/10/20 11:40:59;;;;;;;21.67;6.50;;;29.40;71.70;;;;;;4915459;29;20036;-80
2023/10/20 11:43:28;;;;;;;25.15;5.90;;;29.30;70.60;;;;;;4915705;29;20039;-80
2023/10/20 11:45:54;;;;;;;26.17;6.10;;;29.30;69.40;;;;;;4915544;29;20031;-83
2023/10/20 11:48:20;;;;;;;33.55;6.35;;;29.30;68.90;;;;;;4916410;29;20025;-79
2023/10/20 11:50:46;;;;;;;15.63;4.50;;;29.30;69.80;;;;;;4919055;29;20384;-80
2023/10/20 11:53:12;;;;;;;26.20;5.65;;;29.30;69.20;;;;;;4918988;29;20020;-83
2023/10/20 11:55:39;;;;;;;17.77;5.65;;;29.30;69.50;;;;;;4919105;29;20144;-83
2023/10/20 11:58:05;;;;;;;24.50;5.82;;;29.30;69.50;;;;;;4918781;29;20364;-84
2023/10/20 12:00:31;;;;;;;23.55;7.05;;;29.30;70.00;;;;;;4919272;29;20096;-82
2023/10/20 12:02:57;;;;;;;19.25;7.22;;;29.30;72.00;;;;;;4901995;29;20036;-80
2023/10/20 12:05:23;;;;;;;20.73;5.82;;;29.20;69.30;;;;;;4919035;29;20031;-80
2023/10/20 12:07:50;;;;;;;19.02;5.93;;;29.20;68.50;;;;;;4918879;29;20035;-79
2023/10/20 12:10:16;;;;;;;26.15;7.35;;;29.20;69.70;;;;;;4918441;29;20147;-80
2023/10/20 12:12:41;;;;;;;23.10;7.00;;;29.20;72.30;;;;;;4918789;29;20097;-83
2023/10/20 12:15:08;;;;;;;18.38;5.82;;;29.20;68.90;;;;;;4918462;29;20559;-79
2023/10/20 12:17:34;;;;;;;16.88;5.97;;;29.20;69.00;;;;;;4918860;29;20047;-82
2023/10/20 12:20:00;;;;;;;21.63;5.90;;;29.20;70.70;;;;;;4918403;29;20059;-80
2023/10/20 12:22:25;;;;;;;23.20;6.60;;;29.20;69.70;;;;;;4918876;29;20069;-82
2023/10/20 12:24:51;;;;;;;20.50;6.70;;;29.20;69.90;;;;;;4918592;29;20024;-80
2023/10/20 12:27:17;;;;;;;21.50;5.47;;;29.20;68.80;;;;;;4918694;29;20031;-79
2023/10/20 12:29:43;;;;;;;19.88;4.88;;;29.20;70.30;;;;;;4918216;29;20392;-80
2023/10/20 12:32:12;;;;;;;23.38;5.95;;;29.20;69.90;;;;;;4918540;29;20028;-81
2023/10/20 12:34:38;;;;;;;19.40;5.82;;;29.10;69.20;;;;;;4918024;29;20469;-82
2023/10/20 12:37:05;;;;;;;18.58;4.68;;;29.00;69.10;;;;;;4918597;29;20357;-81
2023/10/20 12:39:34;;;;;;;23.10;4.90;;;29.00;68.40;;;;;;4918236;29;20132;-81
2023/10/20 12:42:03;;;;;;;13.93;5.15;;;29.10;67.70;;;;;;4918359;29;20024;-82
2023/10/20 12:44:29;;;;;;;20.45;5.90;;;29.00;68.40;;;;;;4918175;29;20381;-78
2023/10/20 12:46:55;;;;;;;20.08;4.43;;;29.00;68.10;;;;;;4918240;29;20028;-84
2023/10/20 12:49:21;;;;;;;11.50;3.70;;;29.00;69.10;;;;;;4918184;29;20024;-81
2023/10/20 12:51:48;;;;;;;22.70;5.38;;;29.00;68.40;;;;;;4918224;29;20099;-80
2023/10/20 12:54:14;;;;;;;20.27;4.80;;;29.00;69.00;;;;;;4918097;29;20044;-80
2023/10/20 12:56:40;;;;;;;19.67;5.57;;;28.90;69.50;;;;;;4918107;29;20020;-79
2023/10/20 12:59:05;;;;;;;13.65;4.35;;;28.90;69.30;;;;;;4917289;29;20407;-79
2023/10/20 13:01:31;;;;;;;12.57;4.47;;;28.90;70.10;;;;;;4917314;29;20119;-83
2023/10/20 13:03:57;;;;;;;19.40;5.63;;;28.80;69.60;;;;;;4917770;29;20043;-81
2023/10/20 13:06:23;;;;;;;21.02;6.38;;;28.80;69.70;;;;;;4885776;29;20043;-80
2023/10/20 13:08:50;;;;;;;23.65;6.07;;;28.80;68.40;;;;;;4917375;29;20421;-81
2023/10/20 13:11:16;;;;;;;17.63;5.40;;;28.80;69.60;;;;;;4917871;29;20056;-79